createdAt,value
2022-10-15T00:02:27.515Z,32.27
2022-10-15T00:05:30.630Z,31.23
2022-10-15T00:08:34.001Z,29.03
2022-10-15T00:11:39.785Z,29.23
2022-10-15T00:14:42.802Z,33.77
2022-10-15T00:17:45.780Z,29.13
2022-10-15T00:20:48.723Z,34.57
2022-10-15T00:23:51.717Z,29.80
2022-10-15T00:26:55.995Z,31.60
2022-10-15T00:30:00.183Z,35.50
2022-10-15T00:33:03.176Z,32.47
2022-10-15T00:36:09.088Z,35.97
2022-10-15T00:39:12.097Z,32.93
2022-10-15T00:42:17.164Z,32.23
2022-10-15T00:45:20.596Z,37.20
2022-10-15T00:48:23.879Z,35.60
2022-10-15T00:51:33.139Z,32.00
2022-10-15T00:54:41.158Z,38.13
2022-10-15T00:57:48.406Z,34.87
2022-10-15T01:00:51.841Z,31.13
2022-10-15T01:03:56.683Z,31.90
2022-10-15T01:06:59.707Z,33.63
2022-10-15T01:10:03.597Z,30.13
2022-10-15T01:13:16.470Z,28.97
2022-10-15T01:16:24.323Z,34.63
2022-10-15T01:19:52.324Z,33.03
2022-10-15T01:23:23.654Z,34.83
2022-10-15T01:27:16.532Z,32.93
2022-10-15T01:30:24.924Z,33.00
2022-10-15T01:33:38.154Z,35.20
2022-10-15T01:36:51.084Z,33.87
2022-10-15T01:40:00.149Z,34.70
2022-10-15T01:43:07.675Z,32.23
2022-10-15T01:46:48.272Z,42.20
2022-10-15T01:50:00.547Z,31.80
2022-10-15T01:53:06.730Z,31.87
2022-10-15T01:56:14.182Z,30.87
2022-10-15T01:59:22.095Z,33.00
2022-10-15T02:02:26.906Z,30.30
2022-10-15T02:05:36.474Z,32.97
2022-10-15T02:08:46.034Z,33.37
2022-10-15T02:12:02.053Z,30.53
2022-10-15T02:15:12.497Z,30.47
2022-10-15T02:18:22.504Z,31.70
2022-10-15T02:21:32.895Z,30.93
2022-10-15T02:24:40.539Z,34.07
2022-10-15T02:27:46.961Z,31.87
2022-10-15T02:30:53.702Z,31.60
2022-10-15T02:34:02.599Z,30.97
2022-10-15T02:37:08.094Z,36.37
2022-10-15T02:40:12.119Z,29.53
2022-10-15T02:43:17.780Z,28.43
2022-10-15T02:46:21.856Z,30.63
2022-10-15T02:49:26.271Z,30.60
2022-10-15T02:52:29.367Z,31.37
2022-10-15T02:55:32.642Z,31.07
2022-10-15T02:58:35.787Z,30.40
2022-10-15T03:01:38.907Z,30.20
2022-10-15T03:04:43.871Z,29.30
2022-10-15T03:07:47.891Z,34.13
2022-10-15T03:10:51.333Z,33.77
2022-10-15T03:13:54.424Z,31.50
2022-10-15T03:16:57.946Z,31.90
2022-10-15T03:20:03.262Z,32.60
2022-10-15T03:23:08.612Z,33.20
2022-10-15T03:26:11.701Z,30.17
2022-10-15T03:29:14.930Z,29.90
2022-10-15T03:32:23.463Z,31.57
2022-10-15T03:35:27.871Z,33.93
2022-10-15T03:38:31.606Z,32.90
2022-10-15T03:41:35.093Z,33.93
2022-10-15T03:44:38.479Z,31.57
2022-10-15T03:47:46.204Z,35.03
2022-10-15T03:50:50.532Z,35.87
2022-10-15T03:53:54.227Z,31.60
2022-10-15T03:56:57.603Z,28.67
2022-10-15T04:00:09.443Z,28.20
2022-10-15T04:03:15.793Z,30.07
2022-10-15T04:06:20.535Z,27.17
2022-10-15T04:09:24.260Z,32.10
2022-10-15T04:12:27.538Z,32.00
2022-10-15T04:15:30.764Z,29.90
2022-10-15T04:18:39.165Z,33.60
2022-10-15T04:21:43.728Z,28.23
2022-10-15T04:25:00.151Z,31.57
2022-10-15T04:28:05.238Z,30.97
2022-10-15T04:31:17.826Z,43.53
2022-10-15T04:34:20.818Z,35.03
2022-10-15T04:37:26.311Z,32.03
2022-10-15T04:40:30.072Z,31.97
2022-10-15T04:43:34.545Z,31.93
2022-10-15T04:46:41.895Z,33.10
2022-10-15T04:50:20.153Z,32.70
2022-10-15T04:53:47.743Z,35.10
2022-10-15T04:56:51.464Z,35.17
2022-10-15T04:59:57.621Z,28.97
2022-10-15T05:03:21.024Z,33.20
2022-10-15T05:06:34.884Z,34.93
2022-10-15T05:09:52.805Z,30.63
2022-10-15T05:12:56.939Z,29.17
2022-10-15T05:16:13.831Z,29.97
2022-10-15T05:19:17.821Z,27.77
2022-10-15T05:22:21.333Z,29.20
2022-10-15T05:25:30.616Z,24.10
2022-10-15T05:28:34.009Z,28.13
2022-10-15T05:31:39.270Z,28.20
2022-10-15T05:34:55.166Z,27.43
2022-10-15T05:37:58.308Z,27.10
2022-10-15T05:41:02.561Z,28.60
2022-10-15T05:44:06.216Z,30.33
2022-10-15T05:47:11.962Z,34.10
2022-10-15T05:50:16.670Z,27.60
2022-10-15T05:53:23.262Z,27.20
2022-10-15T05:56:31.980Z,27.13
2022-10-15T05:59:35.001Z,27.20
2022-10-15T06:02:38.076Z,23.03
2022-10-15T06:05:41.136Z,25.70
2022-10-15T06:08:44.271Z,23.87
2022-10-15T06:11:48.722Z,24.77
2022-10-15T06:14:54.556Z,26.53
2022-10-15T06:17:57.548Z,35.13
2022-10-15T06:21:00.569Z,24.53
2022-10-15T06:24:06.316Z,26.70
2022-10-15T06:27:13.903Z,27.33
2022-10-15T06:30:17.096Z,29.80
2022-10-15T06:33:20.031Z,26.77
2022-10-15T06:36:24.246Z,24.00
2022-10-15T06:39:27.614Z,24.43
2022-10-15T06:42:31.876Z,24.00
2022-10-15T06:45:36.502Z,23.77
2022-10-15T06:48:42.423Z,26.93
2022-10-15T06:51:45.367Z,24.43
2022-10-15T06:54:48.293Z,33.87
2022-10-15T06:57:52.821Z,38.07
2022-10-15T07:01:03.471Z,26.33
2022-10-15T07:04:06.488Z,25.03
2022-10-15T07:07:09.472Z,35.90
2022-10-15T07:10:12.438Z,23.77
2022-10-15T07:13:18.619Z,21.97
2022-10-15T07:16:21.727Z,32.63
2022-10-15T07:19:24.707Z,19.83
2022-10-15T07:22:28.007Z,23.37
2022-10-15T07:25:31.339Z,20.13
2022-10-15T07:28:35.721Z,21.57
2022-10-15T07:31:38.679Z,23.10
2022-10-15T07:34:41.731Z,19.73
2022-10-15T07:37:44.808Z,27.47
2022-10-15T07:40:47.766Z,22.50
2022-10-15T07:43:53.142Z,23.63
2022-10-15T07:46:56.070Z,21.13
2022-10-15T07:49:59.262Z,24.20
2022-10-15T07:53:02.290Z,22.92
2022-10-15T07:56:08.743Z,22.52
2022-10-15T07:59:13.183Z,23.77
2022-10-15T08:02:17.611Z,20.47
2022-10-15T08:05:20.544Z,20.40
2022-10-15T08:08:23.693Z,23.75
2022-10-15T08:11:26.691Z,19.40
2022-10-15T08:14:31.206Z,25.02
2022-10-15T08:17:34.122Z,18.60
2022-10-15T08:20:37.430Z,16.73
2022-10-15T08:23:41.457Z,19.50
2022-10-15T08:26:44.775Z,17.17
2022-10-15T08:29:49.007Z,23.48
2022-10-15T08:32:52.078Z,17.90
2022-10-15T08:35:55.153Z,18.60
2022-10-15T08:38:58.601Z,16.27
2022-10-15T08:42:04.655Z,18.65
2022-10-15T08:45:17.125Z,19.75
2022-10-15T08:48:28.880Z,19.23
2022-10-15T08:51:43.110Z,20.60
2022-10-15T08:54:46.170Z,13.38
2022-10-15T08:57:55.232Z,14.85
2022-10-15T09:01:03.029Z,14.73
2022-10-15T09:04:19.777Z,17.65
2022-10-15T09:07:32.759Z,16.67
2022-10-15T09:10:45.315Z,18.08
2022-10-15T09:13:52.550Z,12.82
2022-10-15T09:17:07.648Z,14.18
2022-10-15T09:20:19.986Z,11.38
2022-10-15T09:23:30.727Z,18.58
2022-10-15T09:26:51.506Z,14.90
2022-10-15T09:30:05.270Z,11.93
2022-10-15T09:33:17.845Z,13.55
2022-10-15T09:36:36.666Z,13.50
2022-10-15T09:40:04.927Z,11.73
2022-10-15T09:43:12.105Z,11.40
2022-10-15T09:46:15.218Z,18.90
2022-10-15T09:49:25.696Z,24.65
2022-10-15T09:53:04.017Z,15.23
2022-10-15T09:56:14.695Z,15.48
2022-10-15T09:59:20.832Z,28.05
2022-10-15T10:02:26.878Z,14.05
2022-10-15T10:05:35.886Z,34.13
2022-10-15T10:08:57.130Z,11.88
2022-10-15T10:12:14.325Z,13.65
2022-10-15T10:15:40.028Z,13.52
2022-10-15T10:18:50.368Z,14.43
2022-10-15T10:22:13.122Z,17.08
2022-10-15T10:25:33.456Z,17.17
2022-10-15T10:28:44.202Z,10.75
2022-10-15T10:31:51.671Z,11.65
2022-10-15T10:35:21.347Z,9.18
2022-10-15T10:38:28.801Z,9.05
2022-10-15T10:41:52.973Z,8.20
2022-10-15T10:44:56.101Z,8.10
2022-10-15T10:48:00.564Z,8.45
2022-10-15T10:51:09.335Z,10.77
2022-10-15T10:54:24.507Z,7.88
2022-10-15T10:57:51.168Z,9.70
2022-10-15T11:00:59.091Z,9.10
2022-10-15T11:07:23.898Z,10.25
2022-10-15T11:10:37.412Z,7.78
2022-10-15T11:13:55.260Z,8.57
2022-10-15T11:17:05.823Z,8.80
2022-10-15T11:20:51.033Z,8.98
2022-10-15T11:24:04.929Z,7.90
2022-10-15T11:27:36.507Z,7.97
2022-10-15T11:30:51.452Z,8.88
2022-10-15T11:34:15.510Z,8.70
2022-10-15T11:37:37.925Z,7.53
2022-10-15T11:40:54.604Z,13.43
2022-10-15T11:44:26.649Z,9.15
2022-10-15T11:47:45.527Z,7.22
2022-10-15T11:50:53.481Z,11.20
2022-10-15T11:54:23.058Z,6.72
2022-10-15T11:57:27.687Z,6.00
2022-10-15T12:00:37.952Z,6.93
2022-10-15T12:03:50.810Z,5.25
2022-10-15T12:06:58.261Z,6.13
2022-10-15T12:10:15.036Z,5.80
2022-10-15T12:13:27.632Z,7.75
2022-10-15T12:16:43.001Z,7.32
2022-10-15T12:19:52.214Z,5.68
2022-10-15T12:22:58.973Z,7.38
2022-10-15T12:26:02.035Z,5.20
2022-10-15T12:29:18.352Z,5.57
2022-10-15T12:32:26.148Z,5.50
2022-10-15T12:35:36.459Z,5.75
2022-10-15T12:38:42.421Z,6.50
2022-10-15T12:41:51.043Z,6.07
2022-10-15T12:44:54.646Z,6.28
2022-10-15T12:48:21.407Z,11.05
2022-10-15T12:51:33.328Z,8.15
2022-10-15T12:54:41.790Z,5.60
2022-10-15T12:58:04.192Z,6.55
2022-10-15T13:01:21.184Z,5.82
2022-10-15T13:04:38.834Z,11.25
2022-10-15T13:07:48.206Z,6.57
2022-10-15T13:10:56.020Z,7.97
2022-10-15T13:14:02.895Z,5.28
2022-10-15T13:17:15.492Z,5.18
2022-10-15T13:20:33.677Z,6.57
2022-10-15T13:23:37.211Z,6.70
2022-10-15T13:26:40.183Z,4.53
2022-10-15T13:29:56.005Z,5.50
2022-10-15T13:32:58.971Z,5.88
2022-10-15T13:36:09.200Z,5.55
2022-10-15T13:42:59.120Z,5.03
2022-10-15T13:46:03.106Z,4.88
2022-10-15T13:49:13.792Z,7.50
2022-10-15T13:52:18.455Z,4.93
2022-10-15T13:55:25.791Z,5.28
2022-10-15T13:58:30.840Z,4.57
2022-10-15T14:01:36.174Z,8.88
2022-10-15T14:04:40.953Z,7.82
2022-10-15T14:07:55.437Z,12.45
2022-10-15T14:11:00.462Z,5.25
2022-10-15T14:14:03.796Z,3.88
2022-10-15T14:17:09.347Z,4.60
2022-10-15T14:20:27.226Z,5.32
2022-10-15T14:23:32.969Z,3.90
2022-10-15T14:26:36.385Z,5.80
2022-10-15T14:29:43.089Z,3.97
2022-10-15T14:32:47.922Z,4.53
2022-10-15T14:36:06.350Z,6.18
2022-10-15T14:39:31.219Z,5.60
2022-10-15T14:42:35.968Z,8.45
2022-10-15T14:45:44.702Z,13.18
2022-10-15T14:48:48.421Z,16.75
2022-10-15T14:52:04.527Z,9.15
2022-10-15T14:55:21.124Z,11.82
2022-10-15T14:58:29.756Z,8.00
2022-10-15T15:01:36.393Z,9.13
2022-10-15T15:04:46.820Z,7.40
2022-10-15T15:07:53.883Z,4.53
2022-10-15T15:11:04.082Z,8.25
2022-10-15T15:14:24.371Z,6.47
2022-10-15T15:17:30.402Z,6.75
2022-10-15T15:20:33.415Z,9.18
2022-10-15T15:23:37.141Z,11.32
2022-10-15T15:26:42.557Z,5.25
2022-10-15T15:29:48.353Z,9.48
2022-10-15T15:32:53.344Z,4.72
2022-10-15T15:36:01.783Z,3.42
2022-10-15T15:39:05.239Z,4.70
2022-10-15T15:42:13.650Z,8.25
2022-10-15T15:45:22.130Z,26.88
2022-10-15T15:48:33.428Z,6.88
2022-10-15T15:51:37.071Z,8.55
2022-10-15T15:54:45.553Z,17.85
2022-10-15T15:57:56.227Z,15.63
2022-10-15T16:01:04.686Z,8.30
2022-10-15T16:04:08.124Z,4.75
2022-10-15T16:07:13.559Z,17.13
2022-10-15T16:10:19.758Z,10.90
2022-10-15T16:13:32.174Z,7.60
2022-10-15T16:16:38.791Z,11.15
2022-10-15T16:19:42.210Z,6.00
2022-10-15T16:22:49.967Z,12.98
2022-10-15T16:26:01.988Z,6.70
2022-10-15T16:29:09.124Z,11.20
2022-10-15T16:32:15.342Z,18.13
2022-10-15T16:35:26.787Z,18.70
2022-10-15T16:38:35.915Z,20.63
2022-10-15T16:41:43.546Z,13.30
2022-10-15T16:44:47.905Z,14.75
2022-10-15T16:47:53.820Z,12.20
2022-10-15T16:51:01.107Z,22.42
2022-10-15T16:54:04.560Z,16.88
2022-10-15T16:57:10.175Z,14.48
2022-10-15T17:00:20.143Z,16.77
2022-10-15T17:03:23.185Z,21.25
2022-10-15T17:06:29.998Z,25.80
2022-10-15T17:09:33.359Z,18.83
2022-10-15T17:12:36.417Z,15.85
2022-10-15T17:15:55.875Z,16.02
2022-10-15T17:19:07.263Z,17.42
2022-10-15T17:22:10.562Z,15.63
2022-10-15T17:25:21.115Z,14.52
2022-10-15T17:28:29.460Z,28.45
2022-10-15T17:31:34.314Z,20.65
2022-10-15T17:34:37.533Z,20.58
2022-10-15T17:37:40.936Z,20.63
2022-10-15T17:40:44.035Z,19.73
2022-10-15T17:43:48.052Z,25.08
2022-10-15T17:46:53.119Z,25.73
2022-10-15T17:50:03.924Z,17.23
2022-10-15T17:53:07.502Z,20.83
2022-10-15T17:56:12.933Z,18.80
2022-10-15T17:59:15.954Z,20.80
2022-10-15T18:02:20.437Z,22.80
2022-10-15T18:05:24.306Z,18.73
2022-10-15T18:08:27.393Z,17.20
2022-10-15T18:11:34.570Z,18.10
2022-10-15T18:14:37.702Z,17.90
2022-10-15T18:17:42.002Z,18.10
2022-10-15T18:20:46.660Z,18.47
2022-10-15T18:23:49.667Z,16.37
2022-10-15T18:26:53.370Z,15.63
2022-10-15T18:29:56.394Z,14.37
2022-10-15T18:33:01.165Z,13.80
2022-10-15T18:36:08.866Z,18.60
2022-10-15T18:39:12.054Z,16.93
2022-10-15T18:42:15.010Z,24.77
2022-10-15T18:45:18.072Z,13.13
2022-10-15T18:48:22.310Z,14.40
2022-10-15T18:51:26.063Z,18.57
2022-10-15T18:54:31.310Z,12.10
2022-10-15T18:57:34.764Z,13.40
2022-10-15T19:00:37.809Z,16.93
2022-10-15T19:03:42.207Z,12.87
2022-10-15T19:06:50.079Z,11.20
2022-10-15T19:09:53.038Z,10.20
2022-10-15T19:13:02.565Z,16.37
2022-10-15T19:16:08.721Z,12.53
2022-10-15T19:19:16.253Z,11.98
2022-10-15T19:22:25.339Z,17.40
2022-10-15T19:25:28.435Z,23.63
2022-10-15T19:28:31.435Z,15.77
2022-10-15T19:31:37.723Z,15.03
2022-10-15T19:34:42.172Z,9.43
2022-10-15T19:37:45.335Z,9.20
2022-10-15T19:40:52.281Z,9.77
2022-10-15T19:43:55.310Z,9.80
2022-10-15T19:46:58.485Z,10.17
2022-10-15T19:50:03.062Z,10.90
2022-10-15T19:53:06.848Z,10.13
2022-10-15T19:56:12.075Z,10.17
2022-10-15T19:59:16.767Z,9.43
2022-10-15T20:02:19.785Z,9.30
2022-10-15T20:05:24.094Z,10.45
2022-10-15T20:08:27.326Z,10.65
2022-10-15T20:11:30.622Z,10.53
2022-10-15T20:14:33.691Z,11.48
2022-10-15T20:17:36.853Z,9.50
2022-10-15T20:20:45.368Z,10.82
2022-10-15T20:23:48.676Z,9.80
2022-10-15T20:26:52.225Z,11.43
2022-10-15T20:29:55.426Z,9.68
2022-10-15T20:32:58.694Z,11.90
2022-10-15T20:36:08.918Z,7.80
2022-10-15T20:39:12.145Z,11.03
2022-10-15T20:42:15.124Z,10.98
2022-10-15T20:45:18.236Z,11.90
2022-10-15T20:48:24.356Z,10.02
2022-10-15T20:51:28.947Z,8.60
2022-10-15T20:54:32.345Z,10.85
2022-10-15T20:57:36.572Z,15.37
2022-10-15T21:00:42.952Z,14.17
2022-10-15T21:03:55.842Z,10.00
2022-10-15T21:07:01.817Z,13.77
2022-10-15T21:10:06.091Z,10.40
2022-10-15T21:13:18.421Z,10.53
2022-10-15T21:16:24.580Z,9.93
2022-10-15T21:19:30.775Z,11.10
2022-10-15T21:22:35.269Z,9.67
2022-10-15T21:28:46.536Z,10.10
2022-10-15T21:31:52.501Z,10.53
2022-10-15T21:34:55.445Z,14.97
2022-10-15T21:38:02.032Z,28.00
2022-10-15T21:41:05.310Z,25.37
2022-10-15T21:44:09.204Z,11.13
2022-10-15T21:47:15.133Z,12.43
2022-10-15T21:50:18.845Z,10.27
2022-10-15T21:53:23.524Z,10.30
2022-10-15T21:56:28.332Z,13.13
2022-10-15T21:59:31.434Z,15.33
2022-10-15T22:02:34.602Z,8.97
2022-10-15T22:05:37.712Z,11.10
2022-10-15T22:08:42.769Z,38.03
2022-10-15T22:11:45.902Z,18.10
2022-10-15T22:14:48.984Z,15.23
2022-10-15T22:17:51.919Z,16.27
2022-10-15T22:20:54.977Z,13.93
2022-10-15T22:24:02.414Z,15.53
2022-10-15T22:27:05.430Z,9.87
2022-10-15T22:30:10.267Z,19.13
2022-10-15T22:33:13.425Z,9.40
2022-10-15T22:36:19.640Z,14.03
2022-10-15T22:39:24.020Z,16.43
2022-10-15T22:42:27.524Z,9.77
2022-10-15T22:45:31.571Z,11.63
2022-10-15T22:48:35.155Z,13.87
2022-10-15T22:51:40.606Z,12.70
2022-10-15T22:54:45.113Z,9.80
2022-10-15T22:57:48.553Z,18.03
2022-10-15T23:00:51.834Z,21.53
2022-10-15T23:03:57.441Z,11.53
2022-10-15T23:07:00.686Z,8.63
2022-10-15T23:10:05.717Z,10.60
2022-10-15T23:13:09.325Z,14.13
2022-10-15T23:16:15.873Z,11.10
2022-10-15T23:19:21.706Z,23.33
2022-10-15T23:22:25.276Z,19.77
2022-10-15T23:25:29.998Z,28.50
2022-10-15T23:28:33.096Z,12.70
2022-10-15T23:31:37.226Z,12.77
2022-10-15T23:34:40.769Z,10.17
2022-10-15T23:37:46.590Z,12.33
2022-10-15T23:40:51.901Z,12.60
2022-10-15T23:43:55.519Z,10.37
2022-10-15T23:46:58.523Z,10.20
2022-10-15T23:50:01.571Z,8.40
2022-10-15T23:53:04.831Z,9.00
2022-10-15T23:56:09.489Z,7.73
2022-10-15T23:59:12.937Z,11.20
